Time;durP1;ratioP1;P1;durP2;ratioP2;P2;SDS_P1;SDS_P2;PMS_P1;PMS_P2;Temp;Humidity;BMP_temperature;BMP_pressure;BME280_temperature;BME280_humidity;BME280_pressure;Samples;Min_cycle;Max_cycle;Signal;HPM_P1;HPM_P2
2022/09/17 00:01:47;;;;;;;8.93;4.50;;;;;;;13.02;93.16;93526.73;1652847;86;20982;-57
2022/09/17 00:04:14;;;;;;;5.35;4.45;;;;;;;13.01;92.96;93536.27;1616111;88;21167;-58
2022/09/17 00:06:40;;;;;;;5.47;4.55;;;;;;;12.95;93.12;93530.57;1652350;86;21264;-57
2022/09/17 00:09:07;;;;;;;6.85;5.37;;;;;;;12.91;93.47;93530.75;1652920;85;20998;-59
2022/09/17 00:11:37;;;;;;;10.50;5.72;;;;;;;12.90;93.43;93528.50;1654191;86;21073;-58
2022/09/17 00:14:06;;;;;;;6.85;5.62;;;;;;;12.88;93.87;93524.84;1650866;86;21451;-58
2022/09/17 00:16:40;;;;;;;9.08;5.00;;;;;;;12.89;94.16;93523.59;1652871;86;21064;-58
2022/09/17 00:19:09;;;;;;;13.43;4.95;;;;;;;12.92;94.23;93526.00;1651201;86;21121;-58
2022/09/17 00:21:36;;;;;;;8.53;5.67;;;;;;;12.90;94.46;93515.44;1652435;86;21248;-57
2022/09/17 00:24:04;;;;;;;5.53;4.60;;;;;;;12.93;94.58;93516.50;1651362;85;21648;-58
2022/09/17 00:26:35;;;;;;;8.20;4.85;;;;;;;12.95;94.72;93513.39;1653946;86;21584;-57
2022/09/17 00:29:05;;;;;;;6.85;4.83;;;;;;;12.97;94.52;93520.56;1652761;86;21014;-58
2022/09/17 00:31:32;;;;;;;9.28;4.53;;;;;;;12.97;93.99;93525.31;1649851;86;21198;-56
2022/09/17 00:33:59;;;;;;;9.73;4.80;;;;;;;12.94;93.74;93524.28;1653654;86;21022;-57
2022/09/17 00:36:26;;;;;;;7.40;4.78;;;;;;;12.91;93.50;93518.97;1600564;88;21166;-57
2022/09/17 00:38:56;;;;;;;7.28;4.90;;;;;;;12.85;93.20;93515.40;1650332;86;21098;-58
2022/09/17 00:41:25;;;;;;;8.60;5.25;;;;;;;12.82;93.50;93525.44;1612102;88;21138;-60
2022/09/17 00:43:57;;;;;;;9.65;4.60;;;;;;;12.82;93.03;93532.33;1612448;88;21901;-58
2022/09/17 00:46:39;;;;;;;11.05;4.90;;;;;;;12.75;92.46;93533.40;1653125;86;21001;-59
2022/09/17 00:49:11;;;;;;;14.58;5.30;;;;;;;12.69;92.71;93529.21;1653461;86;21423;-58
2022/09/17 00:51:51;;;;;;;12.23;5.35;;;;;;;12.65;93.01;93525.16;1612435;87;21022;-57
2022/09/17 00:54:17;;;;;;;7.45;5.10;;;;;;;12.64;93.33;93527.78;1654946;86;21603;-57
2022/09/17 00:56:44;;;;;;;9.08;5.42;;;;;;;12.66;93.59;93536.32;1653953;86;22000;-58
2022/09/17 00:59:11;;;;;;;8.08;4.67;;;;;;;12.67;93.57;93537.84;1652971;85;21077;-58
2022/09/17 01:01:37;;;;;;;7.58;4.78;;;;;;;12.71;93.24;93550.81;1604068;88;21600;-58
2022/09/17 01:04:04;;;;;;;9.20;5.28;;;;;;;12.67;93.02;93548.88;1653048;86;21152;-57
2022/09/17 01:06:37;;;;;;;9.05;5.17;;;;;;;12.64;93.28;93550.63;1652044;86;21156;-59
2022/09/17 01:09:25;;;;;;;8.28;4.62;;;;;;;12.62;93.39;93566.14;1608943;88;21563;-58
2022/09/17 01:12:03;;;;;;;5.60;4.80;;;;;;;12.55;93.09;93569.35;1652720;86;21160;-57
2022/09/17 01:14:48;;;;;;;6.55;5.70;;;;;;;12.49;93.32;93587.83;1652202;86;21029;-57
2022/09/17 01:17:20;;;;;;;5.08;4.30;;;;;;;12.45;93.67;93580.41;1650518;86;21030;-59
2022/09/17 01:20:05;;;;;;;6.22;4.90;;;;;;;12.43;93.72;93574.61;1651238;86;21021;-59
2022/09/17 01:23:11;;;;;;;16.02;6.15;;;;;;;12.38;93.89;93576.70;1651260;86;21262;-58
2022/09/17 01:26:06;;;;;;;11.68;5.87;;;;;;;12.35;94.45;93574.16;1651981;86;21179;-57
2022/09/17 01:28:59;;;;;;;6.80;6.03;;;;;;;12.31;95.00;93568.87;1650506;86;21495;-57
2022/09/17 01:31:53;;;;;;;10.63;5.63;;;;;;;12.37;95.61;93579.33;1653449;86;20994;-58
2022/09/17 01:34:56;;;;;;;10.45;5.05;;;;;;;12.37;95.61;93579.33;1653457;86;21504;-58
2022/09/17 01:38:04;;;;;;;5.47;4.65;;;;;;;12.37;95.23;93579.33;1653443;86;21115;-58
2022/09/17 01:40:49;;;;;;;10.80;4.95;;;;;;;12.37;95.10;93577.95;1652814;85;20966;-57
2022/09/17 01:43:24;;;;;;;12.23;4.83;;;;;;;12.37;95.23;93573.05;1650633;86;21522;-57
2022/09/17 01:45:59;;;;;;;6.65;4.50;;;;;;;12.41;94.96;93568.09;1652299;86;20974;-58
2022/09/17 01:48:35;;;;;;;8.48;5.05;;;;;;;12.43;94.79;93559.45;1652358;86;21002;-58
2022/09/17 01:51:10;;;;;;;8.80;5.35;;;;;;;12.48;94.73;93558.73;1652275;86;21159;-59
2022/09/17 01:53:42;;;;;;;9.73;6.37;;;;;;;12.41;94.50;93555.05;1609182;88;21035;-57
2022/09/17 01:56:13;;;;;;;16.37;5.90;;;;;;;12.36;95.10;93554.38;1653560;86;20974;-58
2022/09/17 01:58:45;;;;;;;15.08;5.00;;;;;;;12.37;95.34;93550.98;1632330;86;20986;-58
2022/09/17 02:01:12;;;;;;;12.53;5.55;;;;;;;12.37;95.29;93548.99;1630283;87;21036;-58
2022/09/17 02:03:53;;;;;;;5.15;4.65;;;;;;;12.36;95.27;93542.58;1624416;86;22168;-59
2022/09/17 02:06:24;;;;;;;7.65;4.90;;;;;;;12.33;95.22;93558.72;1626347;86;21957;-57
2022/09/17 02:08:55;;;;;;;12.45;4.87;;;;;;;12.32;95.62;93566.25;1623203;87;21459;-58
2022/09/17 02:11:22;;;;;;;9.98;4.72;;;;;;;12.32;95.42;93553.84;1630854;87;21228;-58
2022/09/17 02:14:00;;;;;;;11.83;5.08;;;;;;;12.35;95.43;93551.48;1630194;86;21605;-58
2022/09/17 02:16:30;;;;;;;5.03;4.42;;;;;;;12.34;95.40;93549.20;1627843;86;21555;-57
2022/09/17 02:19:26;;;;;;;11.33;5.92;;;;;;;12.28;95.13;93550.52;1600318;87;21079;-57
2022/09/17 02:22:22;;;;;;;14.55;6.05;;;;;;;12.22;95.41;93544.20;1613156;87;21058;-59
2022/09/17 02:25:04;;;;;;;7.78;5.67;;;;;;;12.17;95.51;93537.25;1626460;86;21577;-58
2022/09/17 02:27:47;;;;;;;8.58;6.15;;;;;;;12.12;95.88;93538.70;1628122;87;20959;-57
2022/09/17 02:30:15;;;;;;;10.85;6.33;;;;;;;12.10;96.40;93529.42;1627058;86;21322;-58
2022/09/17 02:32:42;;;;;;;9.63;6.90;;;;;;;12.12;96.84;93534.56;1627633;87;21035;-57
2022/09/17 02:35:12;;;;;;;7.17;6.00;;;;;;;12.15;97.06;93534.99;1630656;87;20994;-57
2022/09/17 02:37:43;;;;;;;10.18;6.67;;;;;;;12.20;97.10;93541.78;1626071;86;21768;-58
2022/09/17 02:40:12;;;;;;;9.15;5.67;;;;;;;12.28;97.30;93545.00;1600799;88;21016;-58
2022/09/17 02:43:10;;;;;;;12.50;6.12;;;;;;;12.35;96.94;93538.30;1630766;86;22107;-59
2022/09/17 02:45:57;;;;;;;11.03;6.45;;;;;;;12.33;96.44;93516.75;1627707;86;21038;-58
2022/09/17 02:48:53;;;;;;;10.18;6.10;;;;;;;12.37;96.81;93530.30;1629823;86;21097;-58
2022/09/17 02:51:38;;;;;;;10.50;5.90;;;;;;;12.40;96.35;93552.16;1624891;87;21090;-59
2022/09/17 02:54:31;;;;;;;10.78;6.00;;;;;;;12.39;96.02;93540.22;1576276;89;21641;-58
2022/09/17 02:57:18;;;;;;;13.03;5.80;;;;;;;12.36;95.92;93521.28;1596203;88;21265;-59
2022/09/17 03:00:01;;;;;;;6.20;5.60;;;;;;;12.38;96.16;93521.55;1577416;89;21040;-58
2022/09/17 03:02:39;;;;;;;6.50;5.35;;;;;;;12.38;95.87;93524.91;1605515;88;20975;-57
2022/09/17 03:05:07;;;;;;;10.05;5.37;;;;;;;12.37;95.76;93531.67;1600242;87;21063;-58
2022/09/17 03:07:35;;;;;;;14.78;5.47;;;;;;;12.39;95.87;93521.68;1604759;88;21157;-58
2022/09/17 03:10:04;;;;;;;8.03;6.25;;;;;;;12.43;95.81;93515.95;1578519;88;21158;-58
2022/09/17 03:12:31;;;;;;;13.60;5.25;;;;;;;12.48;95.89;93511.84;1603087;88;21128;-59
2022/09/17 03:14:58;;;;;;;10.28;5.47;;;;;;;12.51;95.71;93501.23;1599921;88;21015;-59
2022/09/17 03:17:25;;;;;;;7.60;4.42;;;;;;;12.54;95.48;93497.49;1597939;89;21554;-60
2022/09/17 03:19:52;;;;;;;11.68;5.90;;;;;;;12.58;95.22;93506.30;1604650;88;21538;-59
2022/09/17 03:22:19;;;;;;;12.25;4.60;;;;;;;12.60;94.84;93502.42;1599112;87;21258;-59
2022/09/17 03:24:45;;;;;;;13.28;5.80;;;;;;;12.62;94.94;93520.02;1603400;87;21265;-58
2022/09/17 03:27:12;;;;;;;10.93;5.40;;;;;;;12.66;94.56;93530.80;1601520;88;21511;-59
2022/09/17 03:29:39;;;;;;;8.78;5.83;;;;;;;12.70;94.56;93532.74;1578509;89;21177;-59
2022/09/17 03:32:06;;;;;;;7.40;5.28;;;;;;;12.74;93.96;93533.27;1601102;88;21050;-57
2022/09/17 03:34:33;;;;;;;9.93;6.05;;;;;;;12.75;93.64;93524.48;1608296;87;21161;-57
2022/09/17 03:36:59;;;;;;;8.95;5.62;;;;;;;12.74;93.56;93521.59;1599896;89;20976;-58
2022/09/17 03:39:27;;;;;;;7.30;5.37;;;;;;;12.74;93.47;93531.25;1603682;88;21077;-58
2022/09/17 03:41:54;;;;;;;11.08;5.47;;;;;;;12.71;93.30;93528.73;1559402;89;21086;-58
2022/09/17 03:44:22;;;;;;;8.53;4.70;;;;;;;12.69;93.27;93526.45;1603386;88;21137;-57
2022/09/17 03:46:50;;;;;;;9.20;4.80;;;;;;;12.69;93.28;93514.67;1604647;87;21685;-58
2022/09/17 03:49:16;;;;;;;10.30;5.55;;;;;;;12.68;93.29;93506.27;1574880;89;21153;-58
2022/09/17 03:51:43;;;;;;;5.87;5.25;;;;;;;12.67;93.12;93509.63;1601000;87;21106;-58
2022/09/17 03:54:09;;;;;;;7.47;4.60;;;;;;;12.65;93.05;93508.60;1605044;88;21077;-57
2022/09/17 03:56:36;;;;;;;8.60;5.10;;;;;;;12.64;93.16;93498.20;1653013;85;21613;-56
2022/09/17 03:59:03;;;;;;;7.90;6.12;;;;;;;12.66;93.04;93506.74;1651389;86;21249;-58
2022/09/17 04:01:29;;;;;;;11.40;6.37;;;;;;;12.61;92.86;93506.09;1652912;86;21209;-58
2022/09/17 04:03:58;;;;;;;12.98;8.10;;;;;;;12.59;93.32;93509.19;1606522;88;21173;-57
2022/09/17 04:06:24;;;;;;;18.35;8.40;;;;;;;12.56;93.70;93515.05;1653788;86;21866;-59
2022/09/17 04:08:52;;;;;;;10.80;6.37;;;;;;;12.57;93.72;93519.95;1654791;86;20975;-58
2022/09/17 04:11:19;;;;;;;11.35;6.35;;;;;;;12.57;93.66;93525.48;1651161;86;21958;-58
2022/09/17 04:13:46;;;;;;;14.68;7.25;;;;;;;12.52;93.34;93521.28;1603610;88;21085;-58
2022/09/17 04:16:13;;;;;;;9.15;5.67;;;;;;;12.45;93.67;93523.86;1611602;88;21462;-58
2022/09/17 04:18:40;;;;;;;11.33;6.00;;;;;;;12.42;93.88;93517.94;1606297;88;21105;-58
2022/09/17 04:21:07;;;;;;;10.95;5.45;;;;;;;12.37;93.96;93515.90;1604819;88;21144;-58
2022/09/17 04:23:33;;;;;;;7.22;5.08;;;;;;;12.38;94.43;93504.23;1653747;86;21509;-58
2022/09/17 04:26:00;;;;;;;9.53;5.33;;;;;;;12.44;94.71;93509.19;1608489;88;21201;-58
2022/09/17 04:28:27;;;;;;;8.80;5.12;;;;;;;12.51;94.40;93506.75;1652077;86;21105;-57
2022/09/17 04:30:56;;;;;;;11.97;8.35;;;;;;;12.50;94.03;93504.47;1652624;86;21037;-58
2022/09/17 04:33:23;;;;;;;10.35;7.15;;;;;;;12.47;94.08;93513.09;1607608;88;21019;-58
2022/09/17 04:35:49;;;;;;;9.78;7.37;;;;;;;12.46;94.36;93501.19;1652513;86;21255;-58
2022/09/17 04:38:19;;;;;;;15.28;7.17;;;;;;;12.47;94.68;93485.51;1651638;86;21065;-59
2022/09/17 04:40:47;;;;;;;7.80;6.53;;;;;;;12.47;94.50;93485.51;1651645;86;20990;-57
2022/09/17 04:43:14;;;;;;;8.78;6.65;;;;;;;12.46;94.50;93486.75;1652630;86;21114;-58
2022/09/17 04:45:46;;;;;;;11.45;6.95;;;;;;;12.42;94.49;93506.91;1637315;86;21562;-59
2022/09/17 04:48:13;;;;;;;14.25;6.70;;;;;;;12.40;94.71;93496.99;1654195;86;21267;-58
2022/09/17 04:50:40;;;;;;;12.35;6.72;;;;;;;12.38;94.94;93489.06;1654537;86;21014;-59
2022/09/17 04:53:07;;;;;;;11.90;6.58;;;;;;;12.39;95.02;93487.81;1650802;86;21013;-61
2022/09/17 04:55:35;;;;;;;9.40;6.90;;;;;;;12.39;95.07;93496.86;1650011;86;21029;-59
2022/09/17 04:58:01;;;;;;;13.72;6.85;;;;;;;12.44;95.34;93499.53;1652557;85;21002;-59
2022/09/17 05:00:28;;;;;;;8.75;6.62;;;;;;;12.47;95.18;93497.92;1654779;86;21955;-57
2022/09/17 05:02:55;;;;;;;16.02;7.08;;;;;;;12.50;95.29;93510.76;1653832;86;21485;-57
2022/09/17 05:05:23;;;;;;;9.13;6.25;;;;;;;12.56;95.25;93511.55;1651063;86;22080;-58
2022/09/17 05:07:51;;;;;;;13.18;6.50;;;;;;;12.65;95.28;93518.26;1652772;86;21079;-58
2022/09/17 05:10:19;;;;;;;10.98;7.45;;;;;;;12.72;94.73;93524.73;1656568;86;21033;-59
2022/09/17 05:12:54;;;;;;;16.02;7.53;;;;;;;12.74;94.09;93528.48;1652115;86;21172;-59
2022/09/17 05:15:22;;;;;;;10.53;6.95;;;;;;;12.73;94.40;93520.08;1652110;86;20991;-58
2022/09/17 05:17:49;;;;;;;14.40;7.45;;;;;;;12.73;94.53;93530.37;1649031;86;21032;-58
2022/09/17 05:20:16;;;;;;;8.25;6.30;;;;;;;12.74;94.31;93527.75;1609633;88;21093;-58
2022/09/17 05:22:47;;;;;;;9.75;6.90;;;;;;;12.74;94.33;93530.51;1650206;86;21573;-57
2022/09/17 05:25:15;;;;;;;13.68;6.42;;;;;;;12.76;94.28;93532.16;1651573;86;22078;-60
2022/09/17 05:27:42;;;;;;;13.25;6.62;;;;;;;12.78;94.42;93532.41;1651208;85;21542;-59
2022/09/17 05:30:11;;;;;;;11.85;8.08;;;;;;;12.79;94.44;93529.18;1588420;88;21073;-60
2022/09/17 05:32:39;;;;;;;14.78;8.13;;;;;;;12.80;94.62;93522.41;1603165;88;21115;-60
2022/09/17 05:35:07;;;;;;;14.75;9.65;;;;;;;12.81;94.53;93520.39;1609177;88;21162;-60
2022/09/17 05:37:34;;;;;;;10.72;8.30;;;;;;;12.81;94.82;93525.91;1587030;89;21252;-61
2022/09/17 05:40:04;;;;;;;12.98;7.67;;;;;;;12.86;94.89;93537.00;1607704;88;21098;-59
2022/09/17 05:42:31;;;;;;;10.35;7.35;;;;;;;12.91;94.55;93545.20;1615821;88;21070;-61
2022/09/17 05:44:58;;;;;;;12.03;8.13;;;;;;;12.90;94.01;93550.59;1616851;88;21054;-59
2022/09/17 05:47:25;;;;;;;15.50;8.20;;;;;;;12.84;93.96;93552.53;1607061;86;21089;-59
2022/09/17 05:49:52;;;;;;;12.95;8.15;;;;;;;12.85;94.08;93554.04;1652370;85;21329;-59
2022/09/17 05:52:18;;;;;;;22.27;7.90;;;;;;;12.89;94.18;93555.97;1655519;85;21065;-58
2022/09/17 05:54:45;;;;;;;9.33;7.42;;;;;;;12.94;94.32;93558.78;1667216;85;21198;-59
2022/09/17 05:57:12;;;;;;;11.65;7.25;;;;;;;12.98;94.63;93555.20;1616824;87;21090;-57
2022/09/17 05:59:39;;;;;;;11.33;7.08;;;;;;;13.02;94.61;93550.81;1632177;86;21083;-59
2022/09/17 06:02:05;;;;;;;8.40;6.62;;;;;;;13.04;94.26;93549.72;1606014;87;21281;-60
2022/09/17 06:04:32;;;;;;;12.05;6.80;;;;;;;13.06;93.97;93549.98;1618316;88;21045;-60
2022/09/17 06:06:59;;;;;;;10.95;6.15;;;;;;;13.10;94.16;93536.70;1636511;86;20970;-59
2022/09/17 06:09:25;;;;;;;9.13;6.35;;;;;;;13.16;93.53;93531.96;1637308;86;21073;-60
2022/09/17 06:11:52;;;;;;;8.88;6.58;;;;;;;13.18;93.15;93537.13;1616876;87;21172;-59
2022/09/17 06:14:19;;;;;;;6.90;5.90;;;;;;;13.19;92.80;93530.97;1615447;87;21887;-59
2022/09/17 06:16:46;;;;;;;20.55;10.00;;;;;;;13.17;93.00;93530.10;1661135;85;21034;-59
2022/09/17 06:19:13;;;;;;;21.05;14.63;;;;;;;13.22;92.54;93531.36;1652820;85;21010;-59
2022/09/17 06:21:40;;;;;;;20.27;13.20;;;;;;;13.19;92.80;93533.12;1653425;85;21038;-58
2022/09/17 06:24:09;;;;;;;23.98;14.80;;;;;;;13.20;92.80;93528.34;1616230;86;21009;-59
2022/09/17 06:26:36;;;;;;;31.05;16.40;;;;;;;13.18;92.82;93526.09;1651681;86;21243;-58
2022/09/17 06:29:02;;;;;;;24.27;14.95;;;;;;;13.18;93.07;93526.70;1635916;86;21021;-59
2022/09/17 06:31:29;;;;;;;22.82;11.25;;;;;;;13.20;93.21;93521.44;1602352;88;21098;-58
2022/09/17 06:33:56;;;;;;;11.75;8.03;;;;;;;13.26;93.02;93517.46;1607345;87;21101;-57
2022/09/17 06:36:23;;;;;;;7.78;6.75;;;;;;;13.27;92.80;93517.59;1605229;88;21141;-60
2022/09/17 06:38:50;;;;;;;9.60;6.17;;;;;;;13.25;92.57;93511.81;1614023;88;21243;-58
2022/09/17 06:41:17;;;;;;;7.90;6.50;;;;;;;13.25;92.66;93522.86;1622085;86;21719;-61
2022/09/17 06:43:45;;;;;;;10.32;6.62;;;;;;;13.24;92.99;93514.44;1626055;86;21063;-60
2022/09/17 06:46:12;;;;;;;7.33;5.90;;;;;;;13.31;92.94;93509.08;1629754;86;21108;-59
2022/09/17 06:48:39;;;;;;;10.60;6.45;;;;;;;13.33;92.62;93509.34;1625761;87;21110;-60
2022/09/17 06:51:09;;;;;;;9.03;5.58;;;;;;;13.33;92.69;93510.73;1632658;87;21324;-62
2022/09/17 06:53:36;;;;;;;8.08;5.75;;;;;;;13.34;92.79;93517.76;1621029;86;21097;-58
2022/09/17 06:56:04;;;;;;;16.90;6.47;;;;;;;13.30;93.03;93526.27;1627554;86;21142;-60
2022/09/17 06:58:36;;;;;;;11.08;6.08;;;;;;;13.32;92.80;93517.50;1630930;87;21480;-60
2022/09/17 07:01:04;;;;;;;8.88;6.55;;;;;;;13.39;92.64;93515.64;1630269;86;21047;-59
2022/09/17 07:03:31;;;;;;;9.63;5.35;;;;;;;13.45;92.21;93517.83;1625839;87;21669;-59
2022/09/17 07:05:58;;;;;;;12.33;7.70;;;;;;;13.52;91.87;93515.97;1629909;86;20939;-59
2022/09/17 07:08:25;;;;;;;9.83;7.12;;;;;;;13.64;90.75;93521.69;1634369;86;21107;-59
2022/09/17 07:10:56;;;;;;;10.28;8.00;;;;;;;13.69;89.34;93520.95;1628319;86;21035;-61
2022/09/17 07:13:24;;;;;;;14.10;7.33;;;;;;;13.73;88.81;93523.61;1604692;87;21067;-59
2022/09/17 07:15:56;;;;;;;10.48;5.80;;;;;;;13.83;88.62;93526.27;1629283;86;22316;-61
2022/09/17 07:18:23;;;;;;;8.38;5.90;;;;;;;13.97;87.16;93530.11;1630607;86;21487;-59
2022/09/17 07:21:00;;;;;;;7.20;5.62;;;;;;;14.01;85.76;93527.86;1630770;86;21522;-59
2022/09/17 07:23:29;;;;;;;9.35;5.62;;;;;;;14.03;84.67;93517.05;1628667;87;21062;-59
2022/09/17 07:25:59;;;;;;;6.53;5.30;;;;;;;14.10;83.98;93515.94;1625296;87;21039;-59
2022/09/17 07:28:26;;;;;;;7.75;6.35;;;;;;;14.25;83.00;93514.37;1628206;86;21460;-61
2022/09/17 07:30:53;;;;;;;8.55;6.22;;;;;;;14.42;82.62;93511.00;1635122;86;21216;-61
2022/09/17 07:33:26;;;;;;;13.05;6.85;;;;;;;14.56;82.30;93505.98;1629876;87;21031;-61
2022/09/17 07:35:56;;;;;;;8.65;6.60;;;;;;;14.64;81.98;93497.30;1627006;87;21051;-60
2022/09/17 07:38:23;;;;;;;11.95;7.22;;;;;;;14.71;82.75;93487.13;1627650;86;21008;-60
2022/09/17 07:41:01;;;;;;;9.25;5.72;;;;;;;14.82;83.67;93482.21;1627019;87;21261;-59
2022/09/17 07:43:31;;;;;;;8.78;6.40;;;;;;;14.90;83.36;93489.51;1626735;87;21157;-61
2022/09/17 07:45:59;;;;;;;8.33;6.03;;;;;;;14.88;82.53;93496.19;1630480;86;22197;-59
2022/09/17 07:48:27;;;;;;;8.95;6.70;;;;;;;14.76;82.11;93507.13;1626001;86;21067;-59
2022/09/17 07:50:54;;;;;;;9.35;6.70;;;;;;;14.63;81.50;93509.63;1632941;86;21145;-59
2022/09/17 07:53:21;;;;;;;8.75;7.65;;;;;;;14.59;81.26;93513.92;1630395;86;21348;-60
2022/09/17 07:55:59;;;;;;;7.97;6.62;;;;;;;14.58;81.14;93513.77;1630620;87;21003;-59
2022/09/17 07:58:30;;;;;;;9.83;7.58;;;;;;;14.61;81.24;93510.77;1629847;87;21091;-57
2022/09/17 08:01:02;;;;;;;9.10;7.33;;;;;;;14.63;81.62;93501.33;1606968;87;21071;-60
2022/09/17 08:03:29;;;;;;;10.13;7.20;;;;;;;14.66;82.02;93494.78;1623531;87;20995;-60
2022/09/17 08:06:08;;;;;;;12.18;8.10;;;;;;;14.83;83.00;93482.34;1631180;87;21146;-61
2022/09/17 08:08:36;;;;;;;18.92;10.25;;;;;;;15.06;82.81;93469.34;1627420;87;21035;-62
2022/09/17 08:11:15;;;;;;;15.00;10.00;;;;;;;15.32;82.61;93469.81;1605175;88;21031;-61
2022/09/17 08:13:44;;;;;;;7.65;5.90;;;;;;;15.51;80.75;93468.63;1642151;85;20991;-61
2022/09/17 08:16:12;;;;;;;8.08;5.45;;;;;;;15.61;79.43;93463.68;1653710;85;21107;-62
2022/09/17 08:18:39;;;;;;;7.53;4.70;;;;;;;15.64;79.05;93469.59;1652266;85;21252;-60
2022/09/17 08:21:07;;;;;;;12.43;4.45;;;;;;;15.71;78.21;93464.15;1629836;85;20970;-59
2022/09/17 08:23:35;;;;;;;6.92;5.00;;;;;;;15.68;78.04;93452.05;1646003;85;21065;-63
2022/09/17 08:26:03;;;;;;;5.15;4.65;;;;;;;15.60;78.52;93455.86;1629487;85;21594;-59
2022/09/17 08:28:30;;;;;;;11.90;7.40;;;;;;;15.52;79.15;93461.18;1651681;85;20990;-62
2022/09/17 08:31:07;;;;;;;12.18;7.97;;;;;;;15.45;79.52;93458.18;1624246;86;21343;-60
2022/09/17 08:33:36;;;;;;;9.53;6.12;;;;;;;15.41;79.80;93445.22;1618071;88;21070;-61
2022/09/17 08:36:04;;;;;;;9.43;6.20;;;;;;;15.36;80.61;93437.69;1616042;88;21538;-61
2022/09/17 08:38:37;;;;;;;7.92;5.67;;;;;;;15.39;80.87;93436.02;1615521;88;21032;-61
2022/09/17 08:41:24;;;;;;;8.48;6.37;;;;;;;15.37;81.22;93451.02;1644708;86;21030;-61
2022/09/17 08:44:24;;;;;;;9.88;6.67;;;;;;;15.36;81.33;93455.05;1653609;86;21223;-59
2022/09/17 08:47:05;;;;;;;6.90;4.97;;;;;;;15.35;81.97;93450.78;1641001;85;21521;-60
2022/09/17 08:49:36;;;;;;;6.90;4.65;;;;;;;15.48;81.92;93446.84;1641511;87;21009;-60
2022/09/17 08:52:40;;;;;;;5.67;4.87;;;;;;;15.63;81.18;93447.28;1604927;87;22212;-62
2022/09/17 08:55:35;;;;;;;9.10;5.58;;;;;;;15.75;80.93;93441.80;1635167;87;21518;-60
2022/09/17 08:58:28;;;;;;;5.30;4.40;;;;;;;15.90;80.41;93441.48;1643710;86;22150;-61
2022/09/17 09:01:35;;;;;;;8.30;4.83;;;;;;;16.00;79.93;93439.91;1644510;86;21069;-61
2022/09/17 09:04:08;;;;;;;6.62;5.03;;;;;;;16.03;78.67;93427.16;1635416;87;20994;-62
2022/09/17 09:06:51;;;;;;;6.92;5.65;;;;;;;16.12;78.03;93418.52;1642977;87;21009;-61
2022/09/17 09:09:20;;;;;;;;;;;;;;;16.23;79.05;93415.67;1640317;87;21113;-60
2022/09/17 09:11:49;;;;;;;5.95;5.08;;;;;;;16.28;79.18;93409.97;1644086;85;20146;-62
2022/09/17 09:14:30;;;;;;;5.58;4.83;;;;;;;16.34;79.28;93416.99;1623679;87;20990;-60
2022/09/17 09:16:56;;;;;;;6.53;4.35;;;;;;;16.44;79.01;93415.41;1638243;87;21149;-60
2022/09/17 09:19:29;;;;;;;8.28;4.40;;;;;;;16.57;78.54;93414.92;1634311;86;21049;-60
2022/09/17 09:22:29;;;;;;;5.35;4.60;;;;;;;16.74;77.61;93414.80;1638771;86;20986;-59
2022/09/17 09:25:26;;;;;;;7.87;4.35;;;;;;;16.87;77.37;93415.67;1637291;87;21158;-60
2022/09/17 09:28:26;;;;;;;6.25;5.65;;;;;;;17.02;77.69;93409.72;1638850;86;21073;-58
2022/09/17 09:31:21;;;;;;;8.38;6.17;;;;;;;17.13;76.72;93406.84;1634841;87;21454;-60
2022/09/17 09:33:48;;;;;;;6.85;5.72;;;;;;;17.29;75.04;93415.64;1633374;87;21006;-60
2022/09/17 10:32:25;;;;;;;9.50;5.35;;;;;;;19.41;59.71;93419.24;1626335;86;21073;-60
2022/09/17 10:35:18;;;;;;;10.03;5.42;;;;;;;19.38;59.80;93415.48;1630649;87;21005;-58
2022/09/17 10:37:49;;;;;;;11.15;5.30;;;;;;;19.43;59.65;93413.25;1635276;86;21167;-60
2022/09/17 10:40:22;;;;;;;9.33;5.50;;;;;;;19.52;59.02;93418.38;1629459;87;21272;-60
2022/09/17 10:42:52;;;;;;;8.70;4.87;;;;;;;19.57;58.50;93413.33;1625250;86;21096;-60
2022/09/17 10:45:30;;;;;;;6.55;4.80;;;;;;;19.65;58.87;93414.20;1628956;86;21719;-60
2022/09/17 10:47:58;;;;;;;8.40;3.83;;;;;;;19.64;58.08;93409.14;1625930;86;21581;-60
2022/09/17 10:50:30;;;;;;;23.90;4.60;;;;;;;19.57;55.93;93408.41;1606927;88;21037;-61
2022/09/17 10:53:05;;;;;;;9.35;3.95;;;;;;;19.47;56.70;93410.88;1623507;88;21104;-61
2022/09/17 10:55:58;;;;;;;4.30;3.22;;;;;;;19.42;57.81;93410.35;1630365;87;21286;-59
2022/09/17 10:58:54;;;;;;;8.15;3.92;;;;;;;19.26;57.61;93411.41;1622646;87;21203;-61
2022/09/17 11:01:41;;;;;;;4.97;4.15;;;;;;;19.04;58.79;93421.52;1625993;87;21105;-62
2022/09/17 11:04:28;;;;;;;5.00;4.30;;;;;;;18.90;59.45;93424.81;1614195;87;21011;-60
2022/09/17 11:07:07;;;;;;;10.63;4.37;;;;;;;18.85;59.08;93418.70;1626953;87;21629;-58
2022/09/17 11:10:03;;;;;;;7.45;3.83;;;;;;;18.92;59.81;93403.50;1624664;88;21046;-60
2022/09/17 11:12:44;;;;;;;8.15;3.90;;;;;;;19.01;59.26;93391.92;1624428;87;21050;-62
2022/09/17 11:15:23;;;;;;;5.30;4.00;;;;;;;19.10;59.18;93381.00;1628316;87;21526;-58
2022/09/17 11:18:18;;;;;;;8.80;4.97;;;;;;;19.13;59.76;93383.48;1622504;86;21168;-60
2022/09/17 11:21:16;;;;;;;13.20;5.37;;;;;;;19.00;59.96;93398.78;1628746;87;22053;-59
2022/09/17 11:24:12;;;;;;;9.58;5.10;;;;;;;18.73;60.58;93412.56;1626024;87;21069;-60
2022/09/17 11:27:14;;;;;;;8.55;5.40;;;;;;;18.31;61.56;93409.94;1602345;88;21577;-59
2022/09/17 11:30:08;;;;;;;8.73;5.25;;;;;;;17.92;62.71;93399.20;1622268;87;21132;-60
2022/09/17 11:33:05;;;;;;;7.92;6.12;;;;;;;17.62;64.32;93401.38;1604811;88;21171;-60
2022/09/17 11:35:59;;;;;;;12.18;6.03;;;;;;;17.41;64.93;93405.28;1627569;87;22309;-58
2022/09/17 11:38:42;;;;;;;8.73;5.28;;;;;;;17.23;66.09;93402.42;1605653;88;21066;-59
2022/09/17 11:41:20;;;;;;;7.28;5.37;;;;;;;17.07;67.03;93399.20;1623159;87;21108;-59
2022/09/17 11:44:09;;;;;;;24.50;14.90;;;;;;;16.98;67.87;93395.37;1627973;86;21090;-59
2022/09/17 11:46:43;;;;;;;81.72;38.83;;;;;;;16.85;68.50;93397.39;1618937;87;20970;-59
2022/09/17 11:49:43;;;;;;;26.50;16.55;;;;;;;16.78;69.00;93394.43;1628839;87;21292;-59
2022/09/17 11:52:21;;;;;;;17.87;10.90;;;;;;;16.66;69.49;93388.85;1626439;87;21691;-60
2022/09/17 11:54:54;;;;;;;26.82;14.07;;;;;;;16.57;70.21;93387.16;1625316;87;21134;-59
2022/09/17 11:57:31;;;;;;;29.35;12.30;;;;;;;16.51;70.64;93388.50;1618455;87;20990;-59
2022/09/17 12:00:16;;;;;;;15.93;8.03;;;;;;;16.47;71.12;93376.91;1625820;87;21090;-59
2022/09/17 12:02:59;;;;;;;16.00;8.03;;;;;;;16.46;71.64;93367.84;1630709;87;21284;-60
2022/09/17 12:05:34;;;;;;;10.55;6.28;;;;;;;16.45;71.19;93372.51;1629533;87;21790;-58
2022/09/17 12:08:42;;;;;;;11.45;7.12;;;;;;;16.39;71.10;93364.88;1628965;86;20998;-58
2022/09/17 12:11:35;;;;;;;7.90;5.47;;;;;;;16.34;71.26;93371.97;1626501;87;21068;-60
2022/09/17 12:14:23;;;;;;;7.30;5.45;;;;;;;16.30;71.46;93370.70;1624643;87;21021;-59
2022/09/17 12:16:53;;;;;;;11.75;5.97;;;;;;;16.24;71.72;93372.04;1627075;87;21766;-59
2022/09/17 12:19:29;;;;;;;10.03;6.30;;;;;;;16.14;71.71;93366.68;1627484;87;21050;-59
2022/09/17 12:22:00;;;;;;;6.33;5.22;;;;;;;16.03;72.42;93366.75;1604492;88;21112;-59
2022/09/17 12:24:29;;;;;;;7.75;5.47;;;;;;;15.96;72.96;93365.92;1627070;87;21642;-59
2022/09/17 12:27:38;;;;;;;8.85;5.20;;;;;;;15.90;73.19;93365.95;1623322;86;21033;-59
2022/09/17 12:30:16;;;;;;;10.50;6.78;;;;;;;15.84;73.45;93363.86;1624920;87;21165;-59
2022/09/17 12:32:59;;;;;;;14.07;6.05;;;;;;;15.77;74.32;93375.48;1605931;88;21663;-60
2022/09/17 12:35:59;;;;;;;7.90;5.65;;;;;;;15.75;74.55;93375.24;1623594;86;21198;-59
2022/09/17 12:39:05;;;;;;;9.95;4.72;;;;;;;15.75;74.77;93380.80;1628514;87;21081;-59
2022/09/17 12:41:42;;;;;;;7.03;4.67;;;;;;;15.80;74.87;93375.86;1622942;87;21622;-59
2022/09/17 12:44:51;;;;;;;12.10;5.12;;;;;;;15.79;75.19;93374.36;1625427;87;21308;-57
2022/09/17 12:47:37;;;;;;;8.38;5.08;;;;;;;15.75;75.35;93380.80;1624664;87;21050;-60
2022/09/17 12:50:27;;;;;;;7.22;5.72;;;;;;;15.74;76.00;93373.73;1623098;87;21086;-59
2022/09/17 12:53:31;;;;;;;8.38;5.20;;;;;;;15.74;76.33;93362.65;1620147;87;21537;-59
2022/09/17 12:56:35;;;;;;;6.05;4.40;;;;;;;15.81;76.32;93380.14;1654347;85;21559;-63
2022/09/17 12:59:13;;;;;;;8.10;5.03;;;;;;;15.90;75.38;93381.86;1623606;86;21210;-59
2022/09/17 13:01:51;;;;;;;12.35;7.55;;;;;;;15.98;74.33;93374.48;1622111;86;20990;-62